createdAt,value
2022-08-17T00:00:43.800Z,100076.22
2022-08-17T00:03:04.469Z,100071.75
2022-08-17T00:05:08.072Z,100072.41
2022-08-17T00:07:11.104Z,100072.75
2022-08-17T00:09:18.463Z,100075.94
2022-08-17T00:11:26.625Z,100075.03
2022-08-17T00:13:33.693Z,100080.56
2022-08-17T00:15:36.385Z,100076.06
2022-08-17T00:17:40.038Z,100076.78
2022-08-17T00:19:42.650Z,100079.13
2022-08-17T00:21:56.321Z,100071.16
2022-08-17T00:24:11.476Z,100080.66
2022-08-17T00:26:14.720Z,100083.00
2022-08-17T00:28:38.939Z,100076.09
2022-08-17T00:30:51.068Z,100074.84
2022-08-17T00:33:14.005Z,100076.72
2022-08-17T00:35:23.387Z,100071.44
2022-08-17T00:37:26.035Z,100079.41
2022-08-17T00:39:28.814Z,100073.69
2022-08-17T00:41:31.515Z,100081.31
2022-08-17T00:43:36.292Z,100073.69
2022-08-17T00:45:39.270Z,100078.44
2022-08-17T00:47:42.511Z,100074.75
2022-08-17T00:49:45.089Z,100084.63
2022-08-17T00:51:59.031Z,100078.28
2022-08-17T00:54:12.916Z,100071.81
2022-08-17T00:56:21.321Z,100078.84
2022-08-17T00:58:33.003Z,100073.97
2022-08-17T01:00:43.051Z,100077.47
2022-08-17T01:02:47.938Z,100059.81
2022-08-17T01:04:53.096Z,100064.22
2022-08-17T01:06:58.576Z,100066.91
2022-08-17T01:09:03.619Z,100063.69
2022-08-17T01:11:08.598Z,100061.53
2022-08-17T01:13:13.059Z,100071.06
2022-08-17T01:15:16.530Z,100063.78
2022-08-17T01:17:19.461Z,100066.47
2022-08-17T01:19:25.855Z,100068.72
2022-08-17T01:21:41.818Z,100068.25
2022-08-17T01:23:44.414Z,100066.63
2022-08-17T01:25:51.032Z,100067.72
2022-08-17T01:27:53.705Z,100067.72
2022-08-17T01:30:01.914Z,100063.25
2022-08-17T01:32:07.470Z,100067.16
2022-08-17T01:34:13.927Z,100067.16
2022-08-17T01:36:16.591Z,100063.59
2022-08-17T01:38:26.500Z,100063.44
2022-08-17T01:40:35.787Z,100061.41
2022-08-17T01:42:45.265Z,100064.91
2022-08-17T01:44:48.392Z,100058.16
2022-08-17T01:46:51.169Z,100058.16
2022-08-17T01:48:56.513Z,100055.75
2022-08-17T01:50:59.375Z,100065.34
2022-08-17T01:53:12.069Z,100066.50
2022-08-17T01:55:17.866Z,100065.69
2022-08-17T01:57:20.462Z,100065.69
2022-08-17T01:59:23.249Z,100063.38
2022-08-17T02:01:28.997Z,100067.06
2022-08-17T02:03:32.295Z,100058.84
2022-08-17T02:05:35.931Z,100071.19
2022-08-17T02:07:47.966Z,100074.78
2022-08-17T02:10:20.053Z,100074.38
2022-08-17T02:12:38.154Z,100072.00
2022-08-17T02:14:46.883Z,100071.19
2022-08-17T02:16:49.757Z,100070.94
2022-08-17T02:18:52.429Z,100070.50
2022-08-17T02:20:55.101Z,100071.38
2022-08-17T02:23:02.677Z,100071.50
2022-08-17T02:25:09.502Z,100070.78
2022-08-17T02:27:13.530Z,100071.69
2022-08-17T02:29:16.166Z,100076.97
2022-08-17T02:31:18.726Z,100070.31
2022-08-17T02:33:21.924Z,100074.47
2022-08-17T02:35:24.577Z,100068.63
2022-08-17T02:37:28.868Z,100071.56
2022-08-17T02:39:31.653Z,100074.06
2022-08-17T02:41:34.823Z,100068.22
2022-08-17T02:43:37.564Z,100066.00
2022-08-17T02:45:40.303Z,100066.06
2022-08-17T02:47:44.348Z,100067.75
2022-08-17T02:49:54.184Z,100071.06
2022-08-17T02:51:59.162Z,100071.88
2022-08-17T02:54:38.941Z,100073.94
2022-08-17T02:56:24.448Z,100073.94
2022-08-17T02:58:35.750Z,100081.66
2022-08-17T03:00:42.506Z,100080.47
2022-08-17T03:02:46.049Z,100084.16
2022-08-17T03:04:48.789Z,100080.56
2022-08-17T03:06:51.552Z,100084.28
2022-08-17T03:08:54.794Z,100087.84
2022-08-17T03:10:57.823Z,100083.81
2022-08-17T03:13:00.739Z,100078.88
2022-08-17T03:15:10.238Z,100082.72
2022-08-17T03:17:17.331Z,100080.31
2022-08-17T03:19:20.128Z,100093.50
2022-08-17T03:21:22.682Z,100087.94
2022-08-17T03:23:27.404Z,100090.00
2022-08-17T03:25:36.623Z,100091.16
2022-08-17T03:27:42.062Z,100083.25
2022-08-17T03:29:47.277Z,100086.94
2022-08-17T03:31:50.590Z,100083.44
2022-08-17T03:33:53.268Z,100087.13
2022-08-17T03:35:56.611Z,100086.38
2022-08-17T03:38:00.406Z,100085.59
2022-08-17T03:40:06.342Z,100088.06
2022-08-17T03:42:31.472Z,100082.31
2022-08-17T03:44:35.838Z,100080.41
2022-08-17T03:46:57.058Z,100087.66
2022-08-17T03:49:18.325Z,100085.03
2022-08-17T03:51:42.545Z,100082.75
2022-08-17T03:54:12.884Z,100083.03
2022-08-17T03:56:34.181Z,100082.47
2022-08-17T03:58:39.701Z,100077.31
2022-08-17T04:00:45.511Z,100078.28
2022-08-17T04:02:48.337Z,100082.78
2022-08-17T04:04:52.566Z,100080.69
2022-08-17T04:06:55.318Z,100073.16
2022-08-17T04:08:57.941Z,100088.63
2022-08-17T04:11:01.673Z,100081.97
2022-08-17T04:13:04.721Z,100078.53
2022-08-17T04:15:07.866Z,100086.63
2022-08-17T04:17:10.451Z,100080.78
2022-08-17T04:19:13.139Z,100088.84
2022-08-17T04:21:15.868Z,100078.63
2022-08-17T04:23:19.482Z,100085.91
2022-08-17T04:25:22.550Z,100083.19
2022-08-17T04:27:25.307Z,100082.44
2022-08-17T04:29:27.932Z,100076.94
2022-08-17T04:31:50.736Z,100076.28
2022-08-17T04:33:54.798Z,100077.16
2022-08-17T04:36:00.644Z,100077.25
2022-08-17T04:38:03.376Z,100079.00
2022-08-17T04:40:27.201Z,100072.38
2022-08-17T04:42:30.288Z,100071.59
2022-08-17T04:44:37.608Z,100070.91
2022-08-17T04:46:40.938Z,100074.28
2022-08-17T04:48:46.620Z,100077.97
2022-08-17T04:50:50.819Z,100086.09
2022-08-17T04:52:53.503Z,100077.78
2022-08-17T04:54:56.105Z,100082.66
2022-08-17T04:56:58.679Z,100082.28
2022-08-17T04:59:05.412Z,100080.78
2022-08-17T05:01:08.694Z,100087.59
2022-08-17T05:03:11.440Z,100078.84
2022-08-17T05:05:20.051Z,100084.88
2022-08-17T05:07:26.236Z,100081.66
2022-08-17T05:09:31.175Z,100080.84
2022-08-17T05:11:34.207Z,100079.72
2022-08-17T05:13:36.862Z,100082.16
2022-08-17T05:15:44.712Z,100083.00
2022-08-17T05:17:47.857Z,100078.66
2022-08-17T05:19:52.099Z,100077.16
2022-08-17T05:21:54.817Z,100074.03
2022-08-17T05:23:58.878Z,100076.13
2022-08-17T05:26:02.301Z,100076.59
2022-08-17T05:28:06.084Z,100078.25
2022-08-17T05:30:09.216Z,100077.09
2022-08-17T05:32:38.089Z,100073.09
2022-08-17T05:34:36.844Z,100068.34
2022-08-17T05:36:44.149Z,100074.78
2022-08-17T05:38:47.604Z,100074.03
2022-08-17T05:40:50.971Z,100070.09
2022-08-17T05:43:09.303Z,100073.38
2022-08-17T05:45:12.655Z,100078.22
2022-08-17T05:47:16.012Z,100071.44
2022-08-17T05:49:27.453Z,100081.09
2022-08-17T05:51:56.466Z,100070.72
2022-08-17T05:54:37.215Z,100078.34
2022-08-17T05:56:49.027Z,100074.78
2022-08-17T05:59:20.482Z,100076.00
2022-08-17T06:01:41.901Z,100073.59
2022-08-17T06:04:10.991Z,100080.41
2022-08-17T06:06:53.191Z,100076.44
2022-08-17T06:09:34.021Z,100084.50
2022-08-17T06:11:40.124Z,100073.28
2022-08-17T06:13:58.664Z,100078.09
2022-08-17T06:16:33.050Z,100081.72
2022-08-17T06:19:04.869Z,100080.09
2022-08-17T06:21:13.567Z,100076.09
2022-08-17T06:23:32.846Z,100070.09
2022-08-17T06:25:45.892Z,100073.28
2022-08-17T06:27:54.044Z,100074.91
2022-08-17T06:30:08.781Z,100070.50
2022-08-17T06:32:13.034Z,100072.91
2022-08-17T06:34:16.298Z,100082.13
2022-08-17T06:36:33.264Z,100077.72
2022-08-17T06:39:09.456Z,100072.47
2022-08-17T06:41:23.142Z,100076.84
2022-08-17T06:43:40.432Z,100072.03
2022-08-17T06:45:49.607Z,100066.78
2022-08-17T06:48:15.402Z,100071.16
2022-08-17T06:50:27.312Z,100074.38
2022-08-17T06:52:55.755Z,100074.38
2022-08-17T06:55:07.281Z,100077.94
2022-08-17T06:57:19.587Z,100074.31
2022-08-17T06:59:55.684Z,100071.03
2022-08-17T07:02:05.754Z,100071.84
2022-08-17T07:04:31.429Z,100069.78
2022-08-17T07:06:38.672Z,100072.19
2022-08-17T07:09:05.774Z,100074.56
2022-08-17T07:11:17.541Z,100076.91
2022-08-17T07:13:51.799Z,100081.75
2022-08-17T07:16:13.388Z,100079.72
2022-08-17T07:18:16.201Z,100080.56
2022-08-17T07:20:22.631Z,100074.50
2022-08-17T07:22:58.158Z,100076.03
2022-08-17T07:25:00.229Z,100069.19
2022-08-17T07:27:37.312Z,100067.94
2022-08-17T07:29:53.859Z,100065.91
2022-08-17T07:31:56.527Z,100061.47
2022-08-17T07:34:11.200Z,100070.66
2022-08-17T07:36:29.982Z,100065.81
2022-08-17T07:38:35.755Z,100067.78
2022-08-17T07:40:39.690Z,100063.31
2022-08-17T07:42:45.082Z,100069.72
2022-08-17T07:44:54.124Z,100056.84
2022-08-17T07:47:15.933Z,100062.47
2022-08-17T07:49:33.017Z,100061.22
2022-08-17T07:51:42.663Z,100066.81
2022-08-17T07:53:45.688Z,100061.09
2022-08-17T07:55:48.994Z,100062.66
2022-08-17T07:57:57.596Z,100060.19
2022-08-17T08:00:01.556Z,100064.19
2022-08-17T08:02:31.863Z,100057.69
2022-08-17T08:07:05.983Z,100054.47
2022-08-17T08:09:08.625Z,100057.66
2022-08-17T08:11:15.666Z,100056.81
2022-08-17T08:13:21.264Z,100059.22
2022-08-17T08:15:33.446Z,100053.16
2022-08-17T08:17:47.849Z,100054.72
2022-08-17T08:19:50.471Z,100061.59
2022-08-17T08:22:05.763Z,100061.16
2022-08-17T08:24:31.805Z,100056.19
2022-08-17T08:26:46.558Z,100058.19
2022-08-17T08:29:19.697Z,100056.56
2022-08-17T08:31:45.165Z,100058.03
2022-08-17T08:34:02.979Z,100046.69
2022-08-17T08:36:13.580Z,100051.44
2022-08-17T08:39:03.590Z,100042.50
2022-08-17T08:41:31.004Z,100047.31
2022-08-17T08:44:13.085Z,100047.28
2022-08-17T08:46:46.077Z,100045.22
2022-08-17T08:49:06.490Z,100046.78
2022-08-17T08:51:39.020Z,100036.66
2022-08-17T08:53:56.691Z,100040.53
2022-08-17T08:56:34.609Z,100037.66
2022-08-17T08:58:52.830Z,100031.66
2022-08-17T09:00:58.711Z,100026.03
2022-08-17T09:03:16.949Z,100035.59
2022-08-17T09:05:39.885Z,100032.38
2022-08-17T09:08:16.025Z,100038.84
2022-08-17T09:10:27.362Z,100034.75
2022-08-17T09:12:48.847Z,100033.41
2022-08-17T09:15:03.697Z,100023.59
2022-08-17T09:17:19.482Z,100026.28
2022-08-17T09:19:30.630Z,100027.72
2022-08-17T09:21:41.480Z,100032.03
2022-08-17T09:24:05.952Z,100017.81
2022-08-17T09:26:35.396Z,100024.22
2022-08-17T09:28:42.794Z,100029.13
2022-08-17T09:30:50.085Z,100022.69
2022-08-17T09:33:07.074Z,100018.75
2022-08-17T09:35:17.699Z,100026.72
2022-08-17T09:37:37.930Z,100021.94
2022-08-17T09:39:53.608Z,100015.00
2022-08-17T09:42:01.945Z,100020.22
2022-08-17T09:44:23.948Z,100011.38
2022-08-17T09:46:46.031Z,100007.44
2022-08-17T09:49:21.865Z,100012.31
2022-08-17T09:51:37.104Z,100010.63
2022-08-17T09:53:40.788Z,100011.44
2022-08-17T09:55:55.962Z,100008.97
2022-08-17T09:58:09.458Z,100004.06
2022-08-17T10:00:27.702Z,100013.22
2022-08-17T10:02:51.125Z,100015.13
2022-08-17T10:05:13.894Z,100002.88
2022-08-17T10:07:38.497Z,100007.66
2022-08-17T10:09:59.847Z,99998.81
2022-08-17T10:12:29.864Z,100010.88
2022-08-17T10:14:53.518Z,99993.81
2022-08-17T10:17:24.247Z,99997.97
2022-08-17T10:19:32.993Z,99999.78
2022-08-17T10:22:00.783Z,99998.38
2022-08-17T10:25:21.739Z,100012.31
2022-08-17T10:27:13.678Z,99996.06
2022-08-17T10:29:23.121Z,99982.13
2022-08-17T10:31:34.661Z,99989.88
2022-08-17T10:34:09.637Z,99992.91
2022-08-17T10:36:26.770Z,99985.56
2022-08-17T10:39:16.844Z,99992.31
2022-08-17T10:41:39.695Z,99981.88
2022-08-17T10:44:38.414Z,99989.91
2022-08-17T10:46:52.942Z,99982.69
2022-08-17T10:49:18.206Z,99986.69
2022-08-17T10:51:42.504Z,99978.66
2022-08-17T10:53:49.583Z,99977.97
2022-08-17T10:56:17.743Z,99979.38
2022-08-17T10:58:24.694Z,99973.72
2022-08-17T11:00:53.666Z,99972.81
2022-08-17T11:02:58.289Z,99967.66
2022-08-17T11:05:00.894Z,99972.13
2022-08-17T11:07:21.645Z,99967.22
2022-08-17T11:09:42.615Z,99965.44
2022-08-17T11:11:50.234Z,99965.16
2022-08-17T11:14:30.891Z,99968.63
2022-08-17T11:16:48.301Z,99953.38
2022-08-17T11:19:21.680Z,99958.22
2022-08-17T11:22:04.292Z,99957.91
2022-08-17T11:24:33.254Z,99953.19
2022-08-17T11:26:39.182Z,99954.13
2022-08-17T11:28:52.474Z,99951.28
2022-08-17T11:30:59.704Z,99951.72
2022-08-17T11:33:36.712Z,99954.56
2022-08-17T11:35:51.541Z,99946.19
2022-08-17T11:38:16.703Z,99947.88
2022-08-17T11:40:41.610Z,99947.91
2022-08-17T11:43:13.725Z,99949.25
2022-08-17T11:45:32.414Z,99935.88
2022-08-17T11:48:27.069Z,99939.28
2022-08-17T11:51:13.291Z,99943.47
2022-08-17T11:53:37.534Z,99935.16
2022-08-17T11:55:44.440Z,99930.72
2022-08-17T11:58:00.037Z,99933.06
2022-08-17T12:00:11.969Z,99931.13
2022-08-17T12:02:20.509Z,99931.06
2022-08-17T12:04:32.272Z,99936.75
2022-08-17T12:06:44.178Z,99931.28
2022-08-17T12:09:16.053Z,99936.59
2022-08-17T12:12:11.161Z,99934.97
2022-08-17T12:14:16.975Z,99931.25
2022-08-17T12:16:22.206Z,99920.88
2022-08-17T12:18:29.515Z,99920.94
2022-08-17T12:20:40.198Z,99921.47
2022-08-17T12:23:09.695Z,99917.94
2022-08-17T12:25:20.469Z,99903.00
2022-08-17T12:27:46.125Z,99897.13
2022-08-17T12:29:52.200Z,99910.34
2022-08-17T12:31:55.420Z,99900.28
2022-08-17T12:34:00.633Z,99901.56
2022-08-17T12:36:07.705Z,99890.56
2022-08-17T12:38:31.829Z,99893.88
2022-08-17T12:40:36.393Z,99899.50
2022-08-17T12:42:40.578Z,99896.31
2022-08-17T12:44:49.629Z,99894.09
2022-08-17T12:47:04.832Z,99889.97
2022-08-17T12:49:14.534Z,99893.16
2022-08-17T12:51:17.501Z,99898.53
2022-08-17T12:53:30.112Z,99899.78
2022-08-17T12:55:37.501Z,99902.81
2022-08-17T12:57:44.319Z,99902.72
2022-08-17T12:59:53.683Z,99897.16
2022-08-17T13:01:56.517Z,99893.50
2022-08-17T13:04:01.012Z,99899.50
2022-08-17T13:06:09.884Z,99896.19
2022-08-17T13:08:28.505Z,99893.81
2022-08-17T13:10:34.341Z,99889.13
2022-08-17T13:12:39.298Z,99889.47
2022-08-17T13:14:51.085Z,99893.84
2022-08-17T13:16:58.441Z,99889.75
2022-08-17T13:19:15.446Z,99888.72
2022-08-17T13:21:23.741Z,99883.31
2022-08-17T13:23:29.508Z,99879.34
2022-08-17T13:25:35.172Z,99879.66
2022-08-17T13:27:42.929Z,99882.31
2022-08-17T13:29:45.725Z,99877.88
2022-08-17T13:32:13.776Z,99875.47
2022-08-17T13:34:31.320Z,99869.09
2022-08-17T13:36:36.207Z,99867.81
2022-08-17T13:38:47.454Z,99863.25
2022-08-17T13:40:53.417Z,99868.44
2022-08-17T13:42:56.648Z,99877.09
2022-08-17T13:45:00.453Z,99868.38
2022-08-17T13:47:06.012Z,99864.97
2022-08-17T13:49:12.225Z,99870.59
2022-08-17T13:51:22.445Z,99863.03
2022-08-17T13:53:36.357Z,99871.75
2022-08-17T13:55:40.087Z,99863.31
2022-08-17T13:57:48.316Z,99861.31
2022-08-17T14:00:17.750Z,99874.66
2022-08-17T14:02:21.461Z,99864.56
2022-08-17T14:04:28.266Z,99864.47
2022-08-17T14:07:03.978Z,99865.47
2022-08-17T14:09:06.762Z,99860.72
2022-08-17T14:11:09.460Z,99861.69
2022-08-17T14:13:16.024Z,99861.97
2022-08-17T14:15:21.833Z,99862.47
2022-08-17T14:17:26.452Z,99861.31
2022-08-17T14:19:29.264Z,99858.84
2022-08-17T14:21:31.987Z,99860.44
2022-08-17T14:23:35.493Z,99854.41
2022-08-17T14:25:38.170Z,99863.66
2022-08-17T14:27:41.347Z,99856.47
2022-08-17T14:29:56.200Z,99859.31
2022-08-17T14:32:04.517Z,99854.41
2022-08-17T14:34:07.798Z,99845.63
2022-08-17T14:36:10.571Z,99852.63
2022-08-17T14:38:13.730Z,99846.91
2022-08-17T14:40:20.576Z,99848.69
2022-08-17T14:42:25.764Z,99840.72
2022-08-17T14:44:28.555Z,99845.88
2022-08-17T14:46:51.132Z,99840.28
2022-08-17T14:48:57.183Z,99839.88
2022-08-17T14:51:00.149Z,99839.44
2022-08-17T14:53:04.761Z,99836.34
2022-08-17T14:55:08.658Z,99845.03
2022-08-17T14:57:22.790Z,99832.88
2022-08-17T14:59:28.939Z,99839.47
2022-08-17T15:01:31.968Z,99836.03
2022-08-17T15:03:34.671Z,99847.38
2022-08-17T15:05:39.533Z,99840.75
2022-08-17T15:07:44.605Z,99834.31
2022-08-17T15:09:47.336Z,99835.16
2022-08-17T15:11:50.872Z,99828.88
2022-08-17T15:13:53.466Z,99836.56
2022-08-17T15:15:57.163Z,99830.63
2022-08-17T15:18:00.122Z,99832.56
2022-08-17T15:20:03.819Z,99838.81
2022-08-17T15:22:07.157Z,99834.06
2022-08-17T15:24:09.900Z,99839.09
2022-08-17T15:26:12.716Z,99836.78
2022-08-17T15:28:15.599Z,99838.84
2022-08-17T15:30:18.631Z,99835.53
2022-08-17T15:32:33.504Z,99838.03
2022-08-17T15:34:36.730Z,99840.25
2022-08-17T15:36:43.873Z,99840.75
2022-08-17T15:38:52.536Z,99830.81
2022-08-17T15:41:01.601Z,99832.28
2022-08-17T15:43:11.514Z,99837.28
2022-08-17T15:45:16.646Z,99835.75
2022-08-17T15:47:19.214Z,99835.56
2022-08-17T15:49:22.017Z,99827.66
2022-08-17T15:51:28.776Z,99846.09
2022-08-17T15:53:31.424Z,99840.63
2022-08-17T15:55:35.369Z,99844.88
2022-08-17T15:57:39.969Z,99844.53
2022-08-17T15:59:43.562Z,99848.25
2022-08-17T16:03:13.027Z,99845.69
2022-08-17T16:04:30.428Z,99848.81
2022-08-17T16:06:33.807Z,99855.06
2022-08-17T16:08:37.155Z,99853.31
2022-08-17T16:10:40.428Z,99856.19
2022-08-17T16:12:47.924Z,99854.06
2022-08-17T16:14:53.507Z,99859.44
2022-08-17T16:16:56.074Z,99859.13
2022-08-17T16:18:59.179Z,99865.84
2022-08-17T16:21:23.538Z,99859.28
2022-08-17T16:23:26.621Z,99860.38
2022-08-17T16:25:52.305Z,99860.50
2022-08-17T16:27:54.717Z,99854.22
2022-08-17T16:29:57.413Z,99864.41
2022-08-17T16:32:13.027Z,99860.97
2022-08-17T16:34:18.682Z,99859.19
2022-08-17T16:36:23.355Z,99866.97
2022-08-17T16:38:25.946Z,99872.00
2022-08-17T16:40:31.343Z,99865.38
2022-08-17T16:42:40.476Z,99867.22
2022-08-17T16:44:43.134Z,99866.94
2022-08-17T16:46:47.107Z,99864.22
2022-08-17T16:48:49.693Z,99874.31
2022-08-17T16:51:03.025Z,99863.56
2022-08-17T16:53:11.975Z,99863.78
2022-08-17T16:55:17.131Z,99865.38
2022-08-17T16:57:19.806Z,99866.69
2022-08-17T16:59:38.723Z,99878.97
2022-08-17T17:01:43.592Z,99881.09
2022-08-17T17:03:54.125Z,99879.06
2022-08-17T17:06:14.595Z,99870.19
2022-08-17T17:08:23.210Z,99875.06
2022-08-17T17:10:47.627Z,99871.13
2022-08-17T17:13:02.090Z,99873.25
2022-08-17T17:15:07.620Z,99870.50
2022-08-17T17:17:25.444Z,99872.59
2022-08-17T17:19:41.436Z,99874.72
2022-08-17T17:22:19.204Z,99869.56
2022-08-17T17:24:39.877Z,99877.28
2022-08-17T17:26:50.124Z,99868.56
2022-08-17T17:29:01.424Z,99871.78
2022-08-17T17:31:14.146Z,99870.63
2022-08-17T17:33:21.469Z,99874.66
2022-08-17T17:35:31.995Z,99885.16
2022-08-17T17:37:37.278Z,99879.13
2022-08-17T17:39:49.205Z,99881.63
2022-08-17T17:41:55.088Z,99880.06
2022-08-17T17:44:12.262Z,99883.38
2022-08-17T17:46:33.458Z,99872.97
2022-08-17T17:48:36.861Z,99876.28
2022-08-17T17:50:51.904Z,99870.28
2022-08-17T17:53:07.779Z,99876.72
2022-08-17T17:55:47.815Z,99881.97
2022-08-17T17:57:56.074Z,99884.75
2022-08-17T18:00:12.183Z,99877.56
2022-08-17T18:02:55.187Z,99869.56
2022-08-17T18:05:06.585Z,99874.84
2022-08-17T18:07:15.497Z,99884.97
2022-08-17T18:09:34.177Z,99878.22
2022-08-17T18:11:45.734Z,99875.06
2022-08-17T18:13:56.991Z,99872.69
2022-08-17T18:16:04.202Z,99885.56
2022-08-17T18:18:09.899Z,99886.38
2022-08-17T18:20:14.349Z,99886.41
2022-08-17T18:22:25.294Z,99878.41
2022-08-17T18:24:37.800Z,99884.81
2022-08-17T18:26:57.390Z,99884.81
2022-08-17T18:29:31.903Z,99881.63
2022-08-17T18:31:34.476Z,99885.25
2022-08-17T18:33:39.601Z,99886.84
2022-08-17T18:35:51.484Z,99876.84
2022-08-17T18:38:20.666Z,99885.69
2022-08-17T18:40:32.283Z,99884.06
2022-08-17T18:42:36.516Z,99888.50
2022-08-17T18:44:39.237Z,99888.91
2022-08-17T18:46:42.405Z,99882.47
2022-08-17T18:49:19.982Z,99880.06
2022-08-17T18:51:40.525Z,99875.66
2022-08-17T18:53:45.090Z,99887.25
2022-08-17T18:55:47.725Z,99883.25
2022-08-17T18:57:55.160Z,99889.25
2022-08-17T18:59:58.840Z,99879.66
2022-08-17T19:02:28.232Z,99884.44
2022-08-17T19:05:02.442Z,99883.63
2022-08-17T19:07:17.734Z,99882.44
2022-08-17T19:09:33.352Z,99882.81
2022-08-17T19:11:36.192Z,99889.66
2022-08-17T19:13:52.173Z,99880.03
2022-08-17T19:16:18.794Z,99879.63
2022-08-17T19:18:30.022Z,99891.19
2022-08-17T19:20:36.213Z,99885.94
2022-08-17T19:23:12.566Z,99879.91
2022-08-17T19:25:27.123Z,99880.66
2022-08-17T19:27:46.306Z,99880.63
2022-08-17T19:29:55.101Z,99883.38
2022-08-17T19:31:58.882Z,99878.22
2022-08-17T19:34:02.626Z,99883.41
2022-08-17T19:36:18.822Z,99883.81
2022-08-17T19:38:39.117Z,99886.56
2022-08-17T19:41:03.199Z,99882.16
2022-08-17T19:43:20.937Z,99885.25
2022-08-17T19:45:58.510Z,99891.22
2022-08-17T19:48:09.373Z,99889.19
2022-08-17T19:50:25.947Z,99883.56
2022-08-17T19:52:47.050Z,99886.69
2022-08-17T19:55:05.128Z,99889.81
2022-08-17T19:57:16.650Z,99891.34
2022-08-17T19:59:49.106Z,99886.16
2022-08-17T20:02:01.191Z,99884.13
2022-08-17T20:04:14.558Z,99884.53
2022-08-17T20:06:19.457Z,99881.69
2022-08-17T20:08:33.555Z,99886.91
2022-08-17T20:10:55.016Z,99883.34
2022-08-17T20:13:04.484Z,99896.09
2022-08-17T20:15:10.252Z,99886.50
2022-08-17T20:17:13.036Z,99889.59
2022-08-17T20:19:45.200Z,99890.75
2022-08-17T20:22:04.885Z,99884.66
2022-08-17T20:24:30.364Z,99881.44
2022-08-17T20:26:58.121Z,99879.72
2022-08-17T20:29:10.369Z,99876.03
2022-08-17T20:31:46.878Z,99879.94
2022-08-17T20:33:49.538Z,99873.81
2022-08-17T20:36:16.151Z,99882.91
2022-08-17T20:38:41.762Z,99886.84
2022-08-17T20:40:57.510Z,99878.41
2022-08-17T20:43:35.480Z,99885.13
2022-08-17T20:46:10.498Z,99888.56
2022-08-17T20:48:36.747Z,99877.75
2022-08-17T20:50:45.471Z,99879.75
2022-08-17T20:52:51.035Z,99878.13
2022-08-17T20:54:57.409Z,99874.16
2022-08-17T20:57:01.183Z,99871.75
2022-08-17T20:59:04.096Z,99875.72
2022-08-17T21:01:24.468Z,99874.09
2022-08-17T21:03:47.570Z,99876.47
2022-08-17T21:06:17.306Z,99872.44
2022-08-17T21:08:30.751Z,99878.00
2022-08-17T21:10:36.500Z,99874.78
2022-08-17T21:12:48.134Z,99877.19
2022-08-17T21:15:28.682Z,99870.00
2022-08-17T21:17:43.727Z,99867.56
2022-08-17T21:20:13.069Z,99874.69
2022-08-17T21:22:46.560Z,99871.41
2022-08-17T21:25:08.588Z,99877.41
2022-08-17T21:27:26.125Z,99871.75
2022-08-17T21:29:34.172Z,99881.63
2022-08-17T21:31:47.982Z,99877.50
2022-08-17T21:34:17.102Z,99878.63
2022-08-17T21:36:26.620Z,99876.94
2022-08-17T21:38:37.204Z,99886.34
2022-08-17T21:40:44.993Z,99879.09
2022-08-17T21:42:57.811Z,99886.94
2022-08-17T21:45:25.398Z,99879.59
2022-08-17T21:47:30.399Z,99887.19
2022-08-17T21:49:37.825Z,99889.22
2022-08-17T21:51:45.631Z,99892.00
2022-08-17T21:53:52.124Z,99887.63
2022-08-17T21:55:54.831Z,99890.41
2022-08-17T21:58:13.884Z,99895.91
2022-08-17T22:00:26.132Z,99893.81
2022-08-17T22:02:35.638Z,99898.09
2022-08-17T22:04:41.556Z,99892.41
2022-08-17T22:06:57.441Z,99898.66
2022-08-17T22:09:47.049Z,99898.16
2022-08-17T22:12:02.032Z,99903.25
2022-08-17T22:14:17.433Z,99905.97
2022-08-17T22:16:29.306Z,99900.25
2022-08-17T22:18:32.569Z,99910.97
2022-08-17T22:20:35.411Z,99910.16
2022-08-17T22:23:05.343Z,99917.25
2022-08-17T22:25:19.967Z,99907.22
2022-08-17T22:27:23.331Z,99921.91
2022-08-17T22:29:58.355Z,99925.00
2022-08-17T22:32:01.095Z,99920.88
2022-08-17T22:34:03.664Z,99918.47
2022-08-17T22:36:12.520Z,99927.63
2022-08-17T22:38:21.281Z,99924.41
2022-08-17T22:40:30.615Z,99923.88
2022-08-17T22:42:44.038Z,99919.81
2022-08-17T22:44:50.574Z,99929.66
2022-08-17T22:46:58.919Z,99926.00
2022-08-17T22:49:01.565Z,99923.56
2022-08-17T22:51:13.383Z,99923.06
2022-08-17T22:53:39.323Z,99917.84
2022-08-17T22:56:09.575Z,99922.56
2022-08-17T22:58:34.950Z,99925.69
2022-08-17T23:00:44.933Z,99922.13
2022-08-17T23:03:10.677Z,99930.81
2022-08-17T23:05:13.370Z,99925.19
2022-08-17T23:07:17.583Z,99928.78
2022-08-17T23:09:20.143Z,99928.31
2022-08-17T23:11:42.921Z,99935.50
2022-08-17T23:13:56.669Z,99933.09
2022-08-17T23:15:59.617Z,99931.00
2022-08-17T23:18:05.318Z,99937.66
2022-08-17T23:20:12.306Z,99941.47
2022-08-17T23:22:14.855Z,99930.66
2022-08-17T23:24:25.483Z,99935.41
2022-08-17T23:26:29.746Z,99934.16
2022-08-17T23:28:34.474Z,99929.69
2022-08-17T23:30:43.937Z,99943.84
2022-08-17T23:32:53.179Z,99945.38
2022-08-17T23:34:59.400Z,99942.88
2022-08-17T23:37:02.424Z,99943.69
2022-08-17T23:39:06.617Z,99936.53
2022-08-17T23:41:13.434Z,99950.78
2022-08-17T23:43:23.709Z,99948.38
2022-08-17T23:45:27.713Z,99953.84
2022-08-17T23:47:30.310Z,99956.53
2022-08-17T23:49:32.928Z,99950.88
2022-08-17T23:51:42.755Z,99945.56
2022-08-17T23:53:53.092Z,99949.09
2022-08-17T23:56:09.137Z,99946.47
2022-08-17T23:58:13.146Z,99949.16
